Time;durP1;ratioP1;P1;durP2;ratioP2;P2;SDS_P1;SDS_P2;PMS_P1;PMS_P2;Temp;Humidity;BMP_temperature;BMP_pressure;BME280_temperature;BME280_humidity;BME280_pressure;Samples;Min_cycle;Max_cycle;Signal;HPM_P1;HPM_P2
2022/05/06 00:00:30;;;;;;;69.00;32.13;;;;;;;11.24;100.00;102481.66;5057420;28;20107;-83
2022/05/06 00:02:55;;;;;;;63.17;32.30;;;;;;;11.23;100.00;102488.78;5057806;28;20339;-84
2022/05/06 00:05:21;;;;;;;73.05;34.20;;;;;;;11.16;100.00;102493.78;5037799;28;20390;-83
2022/05/06 00:07:46;;;;;;;67.00;34.30;;;;;;;11.02;100.00;102488.72;5072055;28;20489;-82
2022/05/06 00:10:14;;;;;;;77.50;34.33;;;;;;;10.82;100.00;102496.50;5077371;28;20055;-82
2022/05/06 00:12:39;;;;;;;77.38;33.45;;;;;;;10.73;100.00;102483.03;5077040;28;20028;-82
2022/05/06 00:15:07;;;;;;;70.95;32.97;;;;;;;10.73;100.00;102491.06;5082677;28;20226;-84
2022/05/06 00:17:33;;;;;;;67.25;32.72;;;;;;;10.70;100.00;102491.31;5082793;28;20070;-83
2022/05/06 00:19:58;;;;;;;68.63;32.67;;;;;;;10.67;100.00;102492.38;5081248;28;20116;-83
2022/05/06 00:22:23;;;;;;;73.20;33.65;;;;;;;10.72;100.00;102489.34;5080697;28;20433;-82
2022/05/06 00:24:51;;;;;;;70.07;32.92;;;;;;;10.72;100.00;102492.03;5080832;28;20028;-83
2022/05/06 00:27:17;;;;;;;70.13;33.35;;;;;;;10.71;100.00;102496.53;5062314;28;20030;-83
2022/05/06 00:29:42;;;;;;;73.07;34.55;;;;;;;10.71;100.00;102496.53;5079905;28;20032;-82
2022/05/06 00:32:08;;;;;;;65.38;33.75;;;;;;;10.72;100.00;102492.03;5072930;28;20040;-83
2022/05/06 00:34:33;;;;;;;68.97;34.22;;;;;;;10.76;100.00;102498.81;5060008;28;20624;-82
2022/05/06 00:36:59;;;;;;;70.05;35.17;;;;;;;10.73;100.00;102505.25;5042576;28;20013;-82
2022/05/06 00:39:25;;;;;;;65.57;34.83;;;;;;;10.63;100.00;102498.94;5060819;28;20115;-81
2022/05/06 00:41:54;;;;;;;68.55;34.75;;;;;;;10.58;100.00;102506.47;5041995;28;20052;-82
2022/05/06 00:44:22;;;;;;;63.03;33.78;;;;;;;10.51;100.00;102498.09;5060391;28;20395;-82
2022/05/06 00:46:50;;;;;;;60.53;32.60;;;;;;;10.55;100.00;102501.38;5040604;28;20024;-82
2022/05/06 00:49:15;;;;;;;70.65;34.13;;;;;;;10.58;100.00;102495.78;5041562;28;20334;-83
2022/05/06 00:51:42;;;;;;;72.47;35.97;;;;;;;10.49;100.00;102497.38;5040472;28;20024;-82
2022/05/06 00:54:08;;;;;;;71.28;35.38;;;;;;;10.39;100.00;102486.53;5040605;28;20040;-83
2022/05/06 00:56:34;;;;;;;76.88;36.13;;;;;;;10.34;100.00;102488.72;5039866;28;20130;-83
2022/05/06 00:58:59;;;;;;;70.65;35.15;;;;;;;10.32;100.00;102489.78;5022413;28;20165;-82
2022/05/06 01:01:24;;;;;;;67.35;34.13;;;;;;;10.33;100.00;102492.34;5039749;28;20025;-82
2022/05/06 01:03:50;;;;;;;67.30;34.30;;;;;;;10.36;100.00;102494.78;5040648;28;20021;-82
2022/05/06 01:06:16;;;;;;;69.40;34.30;;;;;;;10.35;100.00;102497.56;5046291;28;20028;-82
2022/05/06 01:08:43;;;;;;;68.70;35.58;;;;;;;10.33;100.00;102500.34;5080795;28;20020;-84
2022/05/06 01:11:11;;;;;;;67.25;34.33;;;;;;;10.23;100.00;102494.00;5079255;28;20078;-81
2022/05/06 01:13:45;;;;;;;76.30;37.33;;;;;;;10.12;100.00;102494.00;5079676;28;20508;-82
2022/05/06 01:16:11;;;;;;;70.55;35.78;;;;;;;10.00;100.00;102506.44;5081910;28;20028;-82
2022/05/06 01:18:37;;;;;;;68.03;34.60;;;;;;;9.92;100.00;102507.00;5081276;28;20119;-82
2022/05/06 01:21:04;;;;;;;87.90;35.67;;;;;;;9.87;100.00;102503.84;5080265;28;20453;-82
2022/05/06 01:23:30;;;;;;;117.05;37.47;;;;;;;9.85;100.00;102511.13;5080176;28;20018;-82
2022/05/06 01:25:55;;;;;;;92.40;37.17;;;;;;;9.84;100.00;102512.06;5078052;28;20024;-82
2022/05/06 01:28:23;;;;;;;104.70;36.45;;;;;;;9.84;100.00;102512.94;5080015;28;20016;-82
2022/05/06 01:30:52;;;;;;;161.75;36.10;;;;;;;9.94;100.00;102506.91;5062418;28;20070;-81
2022/05/06 01:33:21;;;;;;;197.25;36.42;;;;;;;9.95;100.00;102509.47;5047005;28;20266;-81
2022/05/06 01:35:52;;;;;;;207.25;38.53;;;;;;;9.96;100.00;102512.97;5039967;28;20036;-82
2022/05/06 01:38:32;;;;;;;;;;;;;;;10.05;100.00;102513.13;5039874;28;20025;-82
2022/05/06 01:41:02;;;;;;;197.15;36.00;;;;;;;9.93;100.00;102507.84;5039621;28;19954;-81
2022/05/06 01:43:36;;;;;;;138.82;36.80;;;;;;;9.88;100.00;102511.75;5039407;28;20499;-82
2022/05/06 01:46:04;;;;;;;142.68;36.08;;;;;;;9.89;100.00;102504.56;5038828;28;20138;-82
2022/05/06 01:48:30;;;;;;;200.23;35.78;;;;;;;9.97;100.00;102512.84;5039260;28;20474;-81
2022/05/06 01:50:56;;;;;;;168.63;36.58;;;;;;;9.96;100.00;102507.63;5039199;28;20348;-82
2022/05/06 01:53:21;;;;;;;196.70;36.33;;;;;;;9.98;100.00;102509.22;5038860;28;20025;-82
2022/05/06 01:55:47;;;;;;;203.57;36.47;;;;;;;9.98;100.00;102505.69;5037936;28;20028;-83
2022/05/06 01:58:13;;;;;;;159.73;38.38;;;;;;;10.00;100.00;102509.13;5036109;28;20077;-82
2022/05/06 02:00:38;;;;;;;167.15;36.03;;;;;;;9.96;100.00;102505.84;5037523;28;20031;-82
2022/05/06 02:03:05;;;;;;;161.60;37.35;;;;;;;9.92;100.00;102512.34;5038189;28;20033;-83
2022/05/06 02:05:30;;;;;;;155.75;37.00;;;;;;;9.96;100.00;102511.19;5037159;28;20108;-82
2022/05/06 02:07:55;;;;;;;237.10;37.70;;;;;;;9.92;100.00;102500.84;5037806;28;20058;-82
2022/05/06 02:10:22;;;;;;;283.17;37.35;;;;;;;9.87;100.00;102503.84;5037121;28;20139;-83
2022/05/06 02:12:48;;;;;;;165.43;36.05;;;;;;;9.95;100.00;102512.13;5035231;28;20041;-83
2022/05/06 02:15:15;;;;;;;162.48;37.70;;;;;;;9.98;100.00;102511.91;5039222;28;20025;-82
2022/05/06 02:17:41;;;;;;;186.30;38.28;;;;;;;9.93;100.00;102514.06;5039565;28;20387;-83
2022/05/06 02:20:08;;;;;;;232.88;37.50;;;;;;;9.88;100.00;102517.06;5039217;28;20585;-82
2022/05/06 02:22:35;;;;;;;183.48;36.65;;;;;;;9.89;100.00;102512.56;5037113;28;20412;-83
2022/05/06 02:25:01;;;;;;;167.73;37.85;;;;;;;9.96;100.00;102510.31;5037833;28;20461;-84
2022/05/06 02:27:26;;;;;;;159.02;37.53;;;;;;;10.02;100.00;102517.84;5036672;28;20074;-83
2022/05/06 02:35:20;;;;;;;349.52;37.90;;;;;;;10.08;100.00;102509.38;5039830;28;20205;-83
2022/05/06 02:37:45;;;;;;;148.73;39.00;;;;;;;10.09;100.00;102517.25;5039430;28;20222;-82
2022/05/06 02:40:13;;;;;;;106.07;38.63;;;;;;;10.08;100.00;102512.91;5042341;28;20021;-82
2022/05/06 02:42:39;;;;;;;160.95;39.20;;;;;;;10.13;100.00;102512.53;5040463;28;20444;-82
2022/05/06 02:45:05;;;;;;;144.93;37.33;;;;;;;10.17;100.00;102508.69;5023054;28;20108;-81
2022/05/06 02:47:30;;;;;;;191.07;38.60;;;;;;;10.21;100.00;102511.97;5040236;28;20341;-83
2022/05/06 02:49:56;;;;;;;273.65;39.38;;;;;;;10.20;100.00;102513.78;5041152;28;20126;-82
2022/05/06 02:52:22;;;;;;;147.93;39.78;;;;;;;10.22;100.00;102519.00;5039899;28;20158;-82
2022/05/06 02:54:47;;;;;;;188.93;38.00;;;;;;;10.30;100.00;102518.41;5037806;28;20031;-82
2022/05/06 02:57:13;;;;;;;128.10;37.50;;;;;;;10.29;100.00;102517.56;5038702;28;20372;-81
2022/05/06 02:59:39;;;;;;;159.93;38.45;;;;;;;10.29;100.00;102511.38;5039145;28;20463;-81
2022/05/06 03:02:05;;;;;;;110.13;39.13;;;;;;;10.35;100.00;102521.59;5019614;28;20029;-82
2022/05/06 03:04:31;;;;;;;117.78;38.55;;;;;;;10.34;100.00;102526.09;5038309;28;20147;-82
2022/05/06 03:06:57;;;;;;;121.60;38.38;;;;;;;10.44;100.00;102515.56;5055486;28;20111;-82
2022/05/06 03:09:22;;;;;;;133.13;36.28;;;;;;;10.38;100.00;102516.88;5079040;28;20135;-83
2022/05/06 03:11:47;;;;;;;204.15;38.28;;;;;;;10.23;100.00;102512.69;5076009;28;20067;-83
2022/05/06 03:14:13;;;;;;;283.75;36.22;;;;;;;10.10;100.00;102510.13;5058265;28;20526;-83
2022/05/06 03:16:38;;;;;;;183.98;37.33;;;;;;;10.01;100.00;102503.66;5076154;28;20028;-83
2022/05/06 03:19:03;;;;;;;215.38;34.88;;;;;;;10.05;100.00;102514.97;5058895;28;20389;-83
2022/05/06 03:21:29;;;;;;;288.27;36.28;;;;;;;9.98;100.00;102509.22;5076246;28;20024;-83
2022/05/06 03:23:55;;;;;;;179.98;36.95;;;;;;;9.98;100.00;102505.69;5058347;28;20087;-83
2022/05/06 03:26:20;;;;;;;180.70;34.10;;;;;;;9.90;100.00;102503.63;5076734;28;20570;-83
2022/05/06 03:28:46;;;;;;;252.00;34.10;;;;;;;9.88;100.00;102509.06;5076546;28;20148;-83
2022/05/06 03:31:13;;;;;;;203.95;33.47;;;;;;;9.84;100.00;102517.41;5076388;28;20470;-83
2022/05/06 03:33:41;;;;;;;236.98;33.78;;;;;;;9.85;100.00;102508.47;5057273;28;20200;-82
2022/05/06 03:36:08;;;;;;;184.70;32.55;;;;;;;9.84;100.00;102512.06;5038287;28;20100;-83
2022/05/06 03:38:34;;;;;;;246.45;32.80;;;;;;;9.78;100.00;102501.88;5057004;28;20031;-83
2022/05/06 03:40:59;;;;;;;265.77;33.25;;;;;;;9.79;100.00;102508.91;5056788;28;20701;-83
2022/05/06 03:43:24;;;;;;;137.80;31.80;;;;;;;9.79;100.00;102498.22;5057825;28;20519;-83
2022/05/06 03:45:50;;;;;;;225.23;30.67;;;;;;;9.71;100.00;102502.34;5059266;28;20256;-82
2022/05/06 03:48:15;;;;;;;186.57;31.33;;;;;;;9.79;100.00;102508.91;5057821;28;20512;-83
2022/05/06 03:53:24;;;;;;;237.73;27.58;;;;;;;9.68;100.00;102493.72;5060335;28;20174;-83
2022/05/06 03:55:50;;;;;;;256.98;28.02;;;;;;;9.75;100.00;102510.13;5058853;28;20036;-83
2022/05/06 03:58:15;;;;;;;267.83;27.73;;;;;;;9.75;100.00;102508.28;5060183;28;20383;-83
2022/05/06 04:00:40;;;;;;;246.18;26.05;;;;;;;9.76;100.00;102514.47;5062976;28;20021;-82
2022/05/06 04:03:06;;;;;;;146.38;26.15;;;;;;;9.74;100.00;102503.91;5062168;28;20024;-82
2022/05/06 04:05:33;;;;;;;240.32;24.38;;;;;;;9.71;100.00;102507.66;5060316;28;20027;-82
2022/05/06 04:07:59;;;;;;;184.10;26.02;;;;;;;9.64;100.00;102511.75;5061759;28;20435;-82
2022/05/06 04:10:24;;;;;;;217.82;25.58;;;;;;;9.57;100.00;102509.66;5080983;28;20020;-82
2022/05/06 04:12:51;;;;;;;157.35;24.98;;;;;;;9.47;100.00;102517.47;5082293;28;20089;-82
2022/05/06 04:15:16;;;;;;;167.88;24.52;;;;;;;9.44;100.00;102529.22;5063587;28;20055;-82
2022/05/06 04:17:42;;;;;;;165.90;23.02;;;;;;;9.40;100.00;102529.56;5081992;28;20241;-83
2022/05/06 04:25:35;;;;;;;233.38;21.48;;;;;;;9.30;100.00;102519.56;5081603;28;20039;-83
2022/05/06 04:28:02;;;;;;;268.77;21.33;;;;;;;9.20;100.00;102518.53;5081238;28;20028;-83
2022/05/06 04:30:27;;;;;;;231.05;20.45;;;;;;;9.08;100.00;102514.94;5082957;28;20023;-83
2022/05/06 04:32:53;;;;;;;158.30;21.48;;;;;;;9.10;100.00;102521.00;5069263;28;20078;-83
2022/05/06 04:35:18;;;;;;;129.40;19.20;;;;;;;9.10;100.00;102521.00;5061914;28;20044;-83
2022/05/06 04:37:44;;;;;;;137.68;20.33;;;;;;;9.20;100.00;102528.34;5042638;28;20016;-83
2022/05/06 04:40:10;;;;;;;116.75;20.42;;;;;;;9.28;100.00;102525.97;5059424;28;20358;-83
2022/05/06 04:42:35;;;;;;;119.95;19.65;;;;;;;9.29;100.00;102517.03;5056684;28;20036;-83
2022/05/06 04:45:00;;;;;;;151.82;21.30;;;;;;;9.34;100.00;102533.53;5059193;28;20403;-83
2022/05/06 04:47:26;;;;;;;262.73;20.92;;;;;;;9.21;100.00;102538.88;5060258;28;20044;-82
2022/05/06 04:49:51;;;;;;;166.02;21.17;;;;;;;9.18;100.00;102532.94;5062671;28;20050;-82
2022/05/06 04:52:17;;;;;;;148.90;20.70;;;;;;;9.26;100.00;102533.22;5041793;28;20028;-82
2022/05/06 04:54:42;;;;;;;175.30;21.35;;;;;;;9.36;100.00;102544.09;5043713;28;20082;-82
2022/05/06 04:57:07;;;;;;;138.50;20.52;;;;;;;9.41;100.00;102547.28;5040814;28;20028;-82
2022/05/06 04:59:32;;;;;;;89.07;21.55;;;;;;;9.50;100.00;102542.13;5058799;28;20123;-83
2022/05/06 05:01:58;;;;;;;182.88;21.20;;;;;;;9.44;100.00;102539.91;5060602;28;20574;-82
2022/05/06 05:04:27;;;;;;;228.20;19.58;;;;;;;9.42;100.00;102540.97;5058425;28;20068;-83
2022/05/06 05:06:54;;;;;;;231.63;20.00;;;;;;;9.34;100.00;102545.03;5038637;28;20475;-83
2022/05/06 05:09:20;;;;;;;117.53;19.30;;;;;;;9.36;100.00;102554.75;5024560;28;20494;-82
2022/05/06 05:11:45;;;;;;;176.48;20.50;;;;;;;9.24;100.00;102560.00;5021745;28;20045;-83
2022/05/06 05:14:11;;;;;;;108.13;19.58;;;;;;;9.25;100.00;102552.84;5040911;28;20027;-83
2022/05/06 05:16:36;;;;;;;123.35;19.55;;;;;;;9.28;100.00;102563.28;5041576;28;20024;-84
2022/05/06 05:19:01;;;;;;;280.67;20.58;;;;;;;9.23;100.00;102571.66;5040065;28;20021;-83
2022/05/06 05:21:26;;;;;;;118.18;18.80;;;;;;;9.31;100.00;102571.91;5041642;28;20032;-83
2022/05/06 05:23:52;;;;;;;84.47;19.13;;;;;;;9.28;100.00;102564.16;5042054;28;20412;-82
2022/05/06 05:26:17;;;;;;;105.72;19.25;;;;;;;9.40;100.00;102567.75;5041083;28;20021;-84
2022/05/06 05:28:42;;;;;;;143.60;19.42;;;;;;;9.48;100.00;102557.38;5041791;28;20021;-82
2022/05/06 05:31:08;;;;;;;90.70;18.83;;;;;;;9.55;100.00;102568.44;5041406;28;20021;-83
2022/05/06 05:33:33;;;;;;;99.03;18.52;;;;;;;9.70;100.00;102575.31;5042160;28;20025;-83
2022/05/06 05:35:58;;;;;;;84.70;17.88;;;;;;;9.75;100.00;102571.47;5039945;28;20025;-82
2022/05/06 05:38:24;;;;;;;103.47;18.25;;;;;;;9.76;100.00;102574.03;5039605;28;20032;-83
2022/05/06 05:40:49;;;;;;;73.40;17.80;;;;;;;9.89;100.00;102573.97;5021361;28;20455;-84
2022/05/06 05:48:43;;;;;;;59.08;17.38;;;;;;;9.96;100.00;102566.34;5039179;28;20040;-84
2022/05/06 05:51:08;;;;;;;68.13;18.05;;;;;;;10.00;100.00;102571.34;5038496;28;20024;-83
2022/05/06 05:53:34;;;;;;;107.20;17.17;;;;;;;10.02;100.00;102574.75;5036309;28;20031;-84
2022/05/06 05:55:59;;;;;;;244.88;16.10;;;;;;;9.95;100.00;102568.19;5038789;28;20020;-83
2022/05/06 05:58:24;;;;;;;66.47;17.45;;;;;;;9.98;100.00;102557.28;5037943;28;20354;-84
2022/05/06 06:00:50;;;;;;;61.95;18.00;;;;;;;10.15;100.00;102571.16;5038439;28;20033;-83
2022/05/06 06:03:15;;;;;;;68.78;16.70;;;;;;;10.21;100.00;102568.03;5039300;28;20075;-82
2022/05/06 06:05:41;;;;;;;199.48;16.63;;;;;;;10.15;100.00;102568.47;5038208;28;20464;-83
2022/05/06 06:08:06;;;;;;;72.88;17.13;;;;;;;10.06;100.00;102568.25;5074185;28;20095;-83
2022/05/06 06:10:32;;;;;;;137.65;16.67;;;;;;;9.94;100.00;102570.97;5058725;28;20481;-84
2022/05/06 06:12:57;;;;;;;109.15;15.82;;;;;;;9.85;100.00;102575.16;5077704;28;20019;-83
2022/05/06 06:15:22;;;;;;;183.65;15.80;;;;;;;9.74;100.00;102575.94;5043036;28;20487;-83
2022/05/06 06:17:47;;;;;;;85.38;16.00;;;;;;;9.82;100.00;102578.91;5079033;28;20512;-84
2022/05/06 06:20:13;;;;;;;89.03;17.17;;;;;;;9.98;100.00;102573.28;5078859;28;20028;-83
2022/05/06 06:22:38;;;;;;;66.20;16.40;;;;;;;10.03;100.00;102572.94;5077182;28;20463;-83
2022/05/06 06:25:04;;;;;;;146.35;17.05;;;;;;;10.05;100.00;102565.69;5059542;28;20031;-83
2022/05/06 06:27:31;;;;;;;89.82;18.15;;;;;;;10.08;100.00;102568.97;5077053;28;20016;-83
2022/05/06 06:29:56;;;;;;;75.68;18.48;;;;;;;10.16;100.00;102563.03;5078355;28;20028;-83
2022/05/06 06:32:22;;;;;;;80.35;17.60;;;;;;;10.24;100.00;102562.47;5068491;28;20078;-84
2022/05/06 06:34:47;;;;;;;48.75;19.80;;;;;;;10.35;100.00;102570.56;5049135;28;20040;-82
2022/05/06 06:37:13;;;;;;;96.35;20.60;;;;;;;10.43;100.00;102576.13;5018474;28;20047;-84
2022/05/06 06:39:39;;;;;;;121.65;19.13;;;;;;;10.33;100.00;102580.47;5037523;28;20429;-84
2022/05/06 06:42:05;;;;;;;77.85;18.77;;;;;;;10.24;100.00;102576.66;5037087;28;20373;-84
2022/05/06 06:44:30;;;;;;;189.68;18.42;;;;;;;10.02;100.00;102573.91;5036028;28;20373;-83
2022/05/06 06:46:55;;;;;;;87.97;17.90;;;;;;;10.12;100.00;102587.44;5038275;28;20135;-84
2022/05/06 06:49:21;;;;;;;64.55;18.70;;;;;;;10.35;100.00;102591.91;5038451;28;20013;-83
2022/05/06 06:51:46;;;;;;;64.80;19.25;;;;;;;10.43;100.00;102588.66;5037593;28;20056;-84
2022/05/06 06:54:11;;;;;;;131.80;19.75;;;;;;;10.44;100.00;102591.19;5037462;28;20502;-84
2022/05/06 06:56:37;;;;;;;59.33;19.58;;;;;;;10.41;100.00;102580.75;5037081;28;20043;-83
2022/05/06 06:59:03;;;;;;;102.10;21.38;;;;;;;10.56;100.00;102596.59;5038603;28;20032;-84
2022/05/06 07:01:28;;;;;;;50.33;21.17;;;;;;;10.66;100.00;102600.25;5019191;28;20025;-84
2022/05/06 07:03:54;;;;;;;89.55;21.83;;;;;;;10.69;100.00;102599.16;5037893;28;20532;-83
2022/05/06 07:11:52;;;;;;;47.63;22.25;;;;;;;10.87;100.00;102612.91;5036285;28;20080;-83
2022/05/06 07:14:18;;;;;;;84.13;22.40;;;;;;;10.88;100.00;102626.16;5037033;28;20382;-82
2022/05/06 07:16:44;;;;;;;66.72;23.98;;;;;;;10.90;100.00;102613.53;5036410;28;20025;-83
2022/05/06 07:19:09;;;;;;;52.45;23.20;;;;;;;10.98;100.00;102610.22;5037946;28;20040;-83
2022/05/06 07:21:35;;;;;;;72.03;25.42;;;;;;;11.11;100.00;102610.97;5037271;28;20600;-83
2022/05/06 07:24:00;;;;;;;61.75;25.08;;;;;;;11.14;100.00;102616.09;5037104;28;20021;-83
2022/05/06 07:26:26;;;;;;;56.85;25.10;;;;;;;11.20;100.00;102622.75;5035776;28;20165;-83
2022/05/06 07:28:51;;;;;;;67.00;26.08;;;;;;;11.26;100.00;102630.31;5036864;28;20021;-83
2022/05/06 07:31:17;;;;;;;90.88;26.95;;;;;;;11.17;100.00;102623.03;5037761;28;20278;-82
2022/05/06 07:33:42;;;;;;;61.17;27.13;;;;;;;11.24;100.00;102623.41;5037984;28;20027;-83
2022/05/06 07:36:08;;;;;;;65.28;27.67;;;;;;;11.35;100.00;102634.94;5034982;28;20495;-82
2022/05/06 07:38:33;;;;;;;65.85;27.08;;;;;;;11.51;100.00;102639.06;5037044;28;20121;-83
2022/05/06 07:41:01;;;;;;;72.78;28.40;;;;;;;11.61;100.00;102628.44;5035905;28;20074;-82
2022/05/06 07:43:26;;;;;;;68.18;27.55;;;;;;;11.72;100.00;102623.09;5035163;28;20514;-83
2022/05/06 07:45:52;;;;;;;66.00;28.05;;;;;;;11.81;100.00;102632.19;5037302;28;20089;-83
2022/05/06 07:48:18;;;;;;;57.90;26.83;;;;;;;11.79;100.00;102626.13;5018742;28;20104;-82
2022/05/06 07:50:44;;;;;;;60.70;27.17;;;;;;;11.85;100.00;102634.50;5037456;28;20062;-82
2022/05/06 07:53:11;;;;;;;65.43;27.00;;;;;;;11.93;100.00;102634.75;5037500;28;20511;-82
2022/05/06 07:55:37;;;;;;;57.50;26.25;;;;;;;12.00;100.00;102636.91;5021348;28;20097;-82
2022/05/06 07:58:04;;;;;;;58.17;23.92;;;;;;;12.07;100.00;102630.94;5055141;28;20025;-85
2022/05/06 08:00:33;;;;;;;52.85;23.77;;;;;;;12.27;100.00;102634.66;5056776;28;20036;-84
2022/05/06 08:05:45;;;;;;;48.22;22.08;;;;;;;12.41;100.00;102651.41;5056925;28;20047;-83
2022/05/06 08:08:10;;;;;;;53.60;22.27;;;;;;;12.43;100.00;102634.19;5056845;28;20020;-83
2022/05/06 08:10:36;;;;;;;48.35;21.58;;;;;;;12.54;100.00;102649.34;5056678;28;20601;-83
2022/05/06 08:13:02;;;;;;;48.33;22.05;;;;;;;12.48;100.00;102649.91;5056846;28;20066;-84
2022/05/06 08:15:27;;;;;;;46.83;23.15;;;;;;;12.55;100.00;102642.19;5057238;28;20028;-84
2022/05/06 08:17:53;;;;;;;44.38;22.75;;;;;;;12.69;100.00;102648.09;5057765;28;20035;-83
2022/05/06 08:20:18;;;;;;;55.42;22.50;;;;;;;12.97;100.00;102642.19;5056203;28;20055;-83
2022/05/06 08:22:43;;;;;;;47.65;24.08;;;;;;;13.13;100.00;102647.06;5057512;28;20024;-82
2022/05/06 08:25:09;;;;;;;48.13;23.13;;;;;;;13.18;100.00;102644.81;5056577;28;20424;-81
2022/05/06 08:27:42;;;;;;;44.70;22.13;;;;;;;13.24;100.00;102636.25;5055227;28;20021;-82
2022/05/06 08:30:10;;;;;;;49.88;22.42;;;;;;;13.30;100.00;102640.22;5038238;28;20052;-82
2022/05/06 08:32:36;;;;;;;42.22;20.20;;;;;;;13.35;100.00;102633.47;5010980;28;20039;-84
2022/05/06 08:35:03;;;;;;;39.55;20.67;;;;;;;13.39;100.00;102634.91;5037501;28;20036;-83
2022/05/06 08:37:28;;;;;;;41.67;21.90;;;;;;;13.48;100.00;102629.72;5040186;28;20021;-85
2022/05/06 08:39:54;;;;;;;43.17;22.00;;;;;;;13.69;100.00;102637.69;5040557;28;20545;-83
2022/05/06 08:42:20;;;;;;;53.10;23.92;;;;;;;13.80;100.00;102634.91;5021632;28;20028;-81
2022/05/06 08:53:03;;;;;;;45.70;22.77;;;;;;;14.13;100.00;102630.13;5040555;28;20494;-83
2022/05/06 08:55:28;;;;;;;43.00;21.35;;;;;;;14.24;100.00;102623.75;5041694;28;20507;-82
2022/05/06 08:57:54;;;;;;;41.30;20.52;;;;;;;14.18;100.00;102627.84;5041814;28;20028;-82
2022/05/06 09:00:26;;;;;;;41.75;20.83;;;;;;;14.28;100.00;102628.69;5042067;28;20037;-83
2022/05/06 09:02:52;;;;;;;44.80;21.83;;;;;;;14.48;100.00;102620.66;5042261;28;20055;-83
2022/05/06 09:05:18;;;;;;;44.03;20.95;;;;;;;14.63;100.00;102627.31;5041676;28;20053;-82
2022/05/06 09:08:04;;;;;;;41.17;21.00;;;;;;;14.69;100.00;102624.00;5038887;28;20476;-83
2022/05/06 09:10:29;;;;;;;47.05;23.25;;;;;;;14.79;100.00;102632.06;5039577;28;20024;-83
2022/05/06 09:12:57;;;;;;;50.53;23.92;;;;;;;15.05;100.00;102631.44;5039516;28;20021;-82
2022/05/06 09:18:08;;;;;;;52.15;23.80;;;;;;;15.49;100.00;102628.97;5039721;28;20064;-84
2022/05/06 09:20:35;;;;;;;43.75;20.92;;;;;;;15.44;100.00;102629.44;5039407;28;20028;-83
2022/05/06 09:23:19;;;;;;;53.05;23.88;;;;;;;15.37;100.00;102630.19;5057560;28;20032;-83
2022/05/06 09:25:49;;;;;;;53.88;22.48;;;;;;;15.07;100.00;102626.75;5059364;28;20380;-83
2022/05/06 09:28:25;;;;;;;40.95;20.48;;;;;;;15.28;100.00;102616.59;5060097;28;20085;-83
2022/05/06 09:31:07;;;;;;;41.85;20.60;;;;;;;15.28;100.00;102618.47;5060088;28;20474;-83
2022/05/06 09:33:42;;;;;;;39.63;19.02;;;;;;;15.55;100.00;102604.16;5041070;28;20051;-83
2022/05/06 09:36:30;;;;;;;43.88;20.50;;;;;;;15.70;100.00;102617.94;5058807;28;20132;-83
2022/05/06 09:39:07;;;;;;;46.45;21.05;;;;;;;15.85;100.00;102616.47;5040349;28;20028;-83
2022/05/06 09:41:36;;;;;;;46.38;21.75;;;;;;;15.90;99.69;102615.97;5057950;28;20040;-82
2022/05/06 09:44:06;;;;;;;45.05;21.77;;;;;;;15.89;98.71;102616.16;5058948;28;20020;-83
2022/05/06 09:46:32;;;;;;;46.07;22.00;;;;;;;15.79;98.55;102614.38;5022950;28;20348;-83
2022/05/06 09:49:00;;;;;;;40.28;20.40;;;;;;;15.81;98.81;102609.66;5059598;28;20024;-83
2022/05/06 09:51:33;;;;;;;44.97;20.50;;;;;;;16.10;99.22;102603.22;5039814;28;20483;-82
2022/05/06 09:53:59;;;;;;;48.03;20.20;;;;;;;16.47;97.98;102602.19;5040572;28;20101;-83
2022/05/06 09:56:26;;;;;;;42.08;18.58;;;;;;;16.62;94.42;102604.31;5056832;28;20020;-83
2022/05/06 09:58:55;;;;;;;35.83;17.40;;;;;;;16.90;93.75;102599.63;5058453;28;20143;-83
2022/05/06 10:01:21;;;;;;;35.65;17.73;;;;;;;17.05;93.80;102599.88;5058180;28;20234;-83
2022/05/06 10:03:47;;;;;;;35.67;18.33;;;;;;;16.98;91.87;102606.94;5058573;28;20403;-84
2022/05/06 10:06:13;;;;;;;37.65;17.77;;;;;;;16.78;89.86;102590.91;5058766;28;20376;-84
2022/05/06 10:08:44;;;;;;;39.40;18.10;;;;;;;17.01;91.45;102599.34;5058028;28;20013;-83
2022/05/06 10:11:14;;;;;;;39.40;18.90;;;;;;;17.26;90.11;102592.22;5056322;28;20041;-83
2022/05/06 10:13:45;;;;;;;35.83;18.08;;;;;;;17.40;88.54;102589.91;5039966;28;20051;-83
2022/05/06 10:16:11;;;;;;;39.72;17.58;;;;;;;17.36;85.16;102591.22;5058579;28;20046;-83
2022/05/06 10:18:38;;;;;;;35.45;17.30;;;;;;;17.37;84.82;102582.97;5058341;28;20495;-82
2022/05/06 10:21:11;;;;;;;34.05;17.02;;;;;;;17.69;85.54;102590.31;5057989;28;20059;-83
2022/05/06 10:23:50;;;;;;;38.28;18.35;;;;;;;17.95;84.37;102585.81;5057576;28;20300;-83
2022/05/06 10:26:48;;;;;;;41.15;18.85;;;;;;;18.13;83.12;102582.97;5038024;28;20522;-83
2022/05/06 10:32:36;;;;;;;36.83;16.95;;;;;;;18.44;78.91;102578.53;5057835;28;20554;-83
2022/05/06 10:35:05;;;;;;;35.58;17.38;;;;;;;18.38;75.46;102573.84;5057760;28;20021;-84
2022/05/06 10:37:40;;;;;;;35.35;16.73;;;;;;;18.44;76.86;102575.00;5057096;28;20158;-83
2022/05/06 10:40:23;;;;;;;36.80;16.83;;;;;;;18.50;77.95;102576.16;5057337;28;20418;-83
2022/05/06 10:42:49;;;;;;;38.53;16.38;;;;;;;18.59;74.34;102565.16;5057492;28;20074;-83
2022/05/06 10:45:25;;;;;;;31.70;13.75;;;;;;;18.77;71.22;102574.94;5057796;28;20036;-83
2022/05/06 10:47:51;;;;;;;35.65;13.95;;;;;;;18.60;69.20;102571.41;5058052;28;20124;-83
2022/05/06 10:50:23;;;;;;;32.97;15.35;;;;;;;18.98;76.62;102569.84;5039656;28;20103;-83
2022/05/06 10:52:49;;;;;;;37.42;16.80;;;;;;;19.29;71.64;102560.88;5058419;28;20158;-83
2022/05/06 10:55:16;;;;;;;39.15;17.40;;;;;;;19.59;71.16;102563.78;5057127;28;20353;-84
2022/05/06 10:57:48;;;;;;;35.28;17.80;;;;;;;19.48;68.50;102564.19;5019816;28;20036;-85
2022/05/06 11:00:14;;;;;;;35.08;16.33;;;;;;;19.55;67.32;102565.16;5037921;28;20116;-83
2022/05/06 11:02:40;;;;;;;33.08;15.75;;;;;;;19.83;66.68;102565.50;5019821;28;20368;-82
2022/05/06 11:05:07;;;;;;;35.17;16.33;;;;;;;19.96;65.00;102553.19;5038142;28;20025;-82
2022/05/06 11:07:35;;;;;;;31.80;15.00;;;;;;;20.18;64.79;102559.63;5018272;28;20029;-83
2022/05/06 11:10:33;;;;;;;33.05;13.93;;;;;;;20.53;63.68;102552.69;5037371;28;20139;-84
2022/05/06 11:12:59;;;;;;;36.17;16.38;;;;;;;20.27;61.53;102553.13;5018691;28;20338;-82
2022/05/06 11:15:29;;;;;;;38.45;19.10;;;;;;;19.99;62.90;102550.97;5037015;28;20043;-83
2022/05/06 11:17:56;;;;;;;33.28;15.70;;;;;;;19.90;62.09;102552.06;5037676;28;20135;-83
2022/05/06 11:20:28;;;;;;;36.42;16.48;;;;;;;20.22;63.16;102552.84;5034951;28;20036;-83
2022/05/06 11:23:11;;;;;;;36.85;16.35;;;;;;;20.74;63.56;102546.56;5037257;28;20525;-83
2022/05/06 11:25:57;;;;;;;31.92;14.73;;;;;;;21.15;59.66;102546.06;5035615;28;20060;-83
2022/05/06 11:28:24;;;;;;;32.25;15.80;;;;;;;21.05;57.73;102545.50;5037591;28;20468;-83
2022/05/06 11:30:51;;;;;;;38.15;15.18;;;;;;;20.79;58.95;102548.69;5037834;28;20020;-83
2022/05/06 11:33:24;;;;;;;34.53;16.00;;;;;;;20.66;60.16;102536.63;5038200;28;20491;-83
2022/05/06 11:35:51;;;;;;;31.20;15.00;;;;;;;20.68;64.53;102540.00;5037607;28;20017;-83
2022/05/06 11:38:31;;;;;;;31.50;14.82;;;;;;;20.59;59.13;102529.41;5020552;28;20182;-83
2022/05/06 11:41:05;;;;;;;28.42;13.90;;;;;;;20.89;61.56;102538.38;5018220;28;20059;-83
2022/05/06 11:43:30;;;;;;;29.48;12.95;;;;;;;21.31;58.69;102525.94;5037032;28;20029;-83